Crystal, Nevada
Current Conditions -  °F | °C
As of 3:52 AM on Thursday 27 Nov 2014 (Local Time) from KDRA Reporting Station
Clear Clear  
Wind Chill: 40°   Ceiling: Unl
Heat Index: 43°   Visibility: 10mi
Dew Point: 14°   Wind: 5mph
Humidity: 31%   Direction: 360°N
Pressure: 30.29"   Gusts: NA
Location:  36.2552°N, 116.039°W
Report Text: KDRA 271152Z AUTO 36004KT 10SM CLR 06/M10 A3029 RMK AO2 SLP238 T00611100 10089 20044 58010 $
Loading
Personal Weather Stations






























Interactive Weather Map New forecast layout! Learn more

10-Day Weather Forecast

Advertisements
Track Severe Weather on mobile